Time;durP1;ratioP1;P1;durP2;ratioP2;P2;SDS_P1;SDS_P2;PMS_P1;PMS_P2;Temp;Humidity;BMP_temperature;BMP_pressure;BME280_temperature;BME280_humidity;BME280_pressure;Samples;Min_cycle;Max_cycle;Signal;HPM_P1;HPM_P2
2022/06/17 00:01:04;;;;;;;3.20;2.70;;;26.00;45.20;27.20;101588.00;;;;5113714;28;20220;-43
2022/06/17 00:03:32;;;;;;;3.00;2.80;;;26.00;45.20;27.20;101590.00;;;;5105396;28;20196;-42
2022/06/17 00:06:00;;;;;;;3.03;2.72;;;26.00;45.20;27.10;101577.00;;;;5088205;28;20234;-42
2022/06/17 00:08:34;;;;;;;2.80;2.60;;;25.90;45.90;27.10;101570.00;;;;5086492;28;20199;-42
2022/06/17 00:10:59;;;;;;;3.60;2.70;;;26.00;45.30;27.10;101580.00;;;;5087239;28;20149;-42
2022/06/17 00:13:25;;;;;;;2.88;2.53;;;25.90;45.20;27.10;101576.00;;;;5096562;28;20272;-42
2022/06/17 00:15:52;;;;;;;3.45;2.90;;;25.90;45.40;27.00;101575.00;;;;5088141;28;20531;-41
2022/06/17 00:18:18;;;;;;;3.45;2.80;;;25.90;45.30;27.00;101584.00;;;;5087661;28;20169;-44
2022/06/17 00:20:44;;;;;;;3.00;2.75;;;25.80;45.30;27.00;101570.00;;;;5087821;28;20718;-42
2022/06/17 00:23:14;;;;;;;3.20;2.90;;;25.80;45.50;27.00;101571.00;;;;5087330;28;20207;-42
2022/06/17 00:25:40;;;;;;;2.88;2.60;;;25.70;45.50;26.90;101575.00;;;;5087763;28;20161;-43
2022/06/17 00:28:19;;;;;;;3.13;2.83;;;25.70;45.50;26.90;101583.00;;;;5087254;28;20337;-42
2022/06/17 00:30:46;;;;;;;3.00;2.78;;;25.70;45.50;26.90;101575.00;;;;5087594;28;20551;-42
2022/06/17 00:33:12;;;;;;;3.10;2.80;;;25.80;45.50;26.90;101576.00;;;;5087736;28;20216;-42
2022/06/17 00:35:42;;;;;;;2.80;2.60;;;25.80;45.60;26.80;101563.00;;;;5087825;28;20765;-43
2022/06/17 00:38:13;;;;;;;2.92;2.72;;;25.70;45.50;26.80;101566.00;;;;5086237;28;20172;-42
2022/06/17 00:40:39;;;;;;;3.10;2.65;;;25.70;45.50;26.80;101562.00;;;;5086395;28;20669;-42
2022/06/17 00:43:10;;;;;;;2.88;2.67;;;25.70;45.50;26.80;101564.00;;;;5086200;28;20221;-42
2022/06/17 00:45:40;;;;;;;3.03;2.70;;;25.60;45.10;26.70;101569.00;;;;5070006;28;20164;-43
2022/06/17 00:48:27;;;;;;;3.45;2.50;;;25.50;44.70;26.70;101556.00;;;;5088735;28;20196;-42
2022/06/17 00:51:05;;;;;;;2.58;2.38;;;25.50;44.20;26.60;101561.00;;;;5074523;28;20161;-42
2022/06/17 00:53:37;;;;;;;2.85;2.60;;;25.50;43.80;26.60;101558.00;;;;5086345;28;20736;-42
2022/06/17 00:56:29;;;;;;;2.50;2.30;;;25.40;43.40;26.50;101565.00;;;;5090082;28;20157;-42
2022/06/17 00:59:04;;;;;;;2.72;2.50;;;25.30;43.30;26.50;101560.00;;;;5087177;28;20157;-42
2022/06/17 01:01:53;;;;;;;3.15;2.40;;;25.30;43.00;26.40;101556.00;;;;5087267;28;20153;-42
2022/06/17 01:04:26;;;;;;;2.90;2.60;;;25.30;42.90;26.20;101555.00;;;;5085731;28;20192;-42
2022/06/17 01:07:17;;;;;;;2.85;2.50;;;25.20;42.60;26.30;101558.00;;;;5085977;28;20164;-42
2022/06/17 01:09:57;;;;;;;2.87;2.50;;;25.10;42.70;26.30;101546.00;;;;5085994;28;20169;-41
2022/06/17 01:12:38;;;;;;;3.15;2.50;;;25.00;42.40;26.20;101558.00;;;;5085532;28;20153;-42
2022/06/17 01:15:06;;;;;;;2.60;2.40;;;25.00;42.60;26.20;101568.00;;;;5085826;28;20192;-41
2022/06/17 01:17:32;;;;;;;3.77;2.50;;;25.00;42.70;26.20;101558.00;;;;5085437;28;20709;-44
2022/06/17 01:20:00;;;;;;;3.60;2.40;;;25.00;43.20;26.10;101564.00;;;;5086925;28;20173;-42
2022/06/17 01:22:42;;;;;;;3.27;2.63;;;25.00;42.50;26.10;101561.00;;;;5085497;28;20649;-43
2022/06/17 01:25:36;;;;;;;2.45;2.25;;;25.00;42.40;26.10;101526.00;;;;5086730;28;20161;-43
2022/06/17 01:28:05;;;;;;;2.50;2.30;;;25.00;42.70;26.00;101547.00;;;;5092973;28;20196;-50
2022/06/17 01:30:42;;;;;;;2.80;2.37;;;25.00;42.70;26.00;101553.00;;;;5099562;28;20208;-42
2022/06/17 01:33:20;;;;;;;2.63;2.40;;;25.00;42.80;26.00;101558.00;;;;5100446;28;20233;-43
2022/06/17 01:36:04;;;;;;;2.70;2.50;;;25.00;42.80;26.00;101562.00;;;;5099531;28;20169;-42
2022/06/17 01:38:30;;;;;;;2.87;2.57;;;25.00;42.80;26.00;101561.00;;;;5099733;28;20168;-42
2022/06/17 01:40:57;;;;;;;3.87;2.40;;;25.00;42.70;26.00;101574.00;;;;5099264;28;20172;-41
2022/06/17 01:43:46;;;;;;;2.60;2.30;;;25.00;43.00;26.00;101580.00;;;;5090473;28;20192;-43
2022/06/17 01:46:18;;;;;;;2.70;2.50;;;25.00;43.20;26.00;101574.00;;;;5082415;28;20269;-42
2022/06/17 01:48:52;;;;;;;2.77;2.50;;;25.00;43.60;26.00;101586.00;;;;5089346;28;20204;-42
2022/06/17 01:51:19;;;;;;;3.15;2.88;;;25.00;43.80;26.00;101583.00;;;;5091924;28;20171;-42
2022/06/17 01:53:47;;;;;;;3.03;2.70;;;25.00;43.90;26.00;101585.00;;;;5090974;28;20673;-42
2022/06/17 01:56:15;;;;;;;2.50;2.30;;;25.00;43.90;25.90;101572.00;;;;5090662;28;20529;-43
2022/06/17 01:58:49;;;;;;;3.40;2.73;;;25.00;44.10;25.90;101589.00;;;;5089378;28;20169;-42
2022/06/17 02:01:14;;;;;;;4.20;2.97;;;24.90;44.10;25.90;101579.00;;;;5089891;28;20157;-42
2022/06/17 02:03:44;;;;;;;2.97;2.67;;;24.90;44.20;25.90;101586.00;;;;5090434;28;20851;-42
2022/06/17 02:06:24;;;;;;;3.13;2.83;;;24.90;44.20;25.90;101578.00;;;;5088654;28;20181;-42
2022/06/17 02:08:51;;;;;;;3.03;2.70;;;24.90;44.30;25.90;101580.00;;;;5088893;28;20192;-42
2022/06/17 02:11:17;;;;;;;3.13;2.50;;;24.90;44.50;25.80;101572.00;;;;5088879;28;20195;-42
2022/06/17 02:13:43;;;;;;;3.50;2.60;;;24.90;44.60;25.90;101574.00;;;;5088726;28;20829;-42
2022/06/17 02:16:09;;;;;;;3.40;2.80;;;24.80;44.60;25.80;101569.00;;;;5088719;28;20165;-42
2022/06/17 02:18:35;;;;;;;2.90;2.60;;;24.80;44.80;25.80;101578.00;;;;5090459;28;20275;-42
2022/06/17 02:21:03;;;;;;;3.00;2.73;;;24.80;45.10;25.80;101574.00;;;;5088558;28;20244;-42
2022/06/17 02:23:29;;;;;;;2.80;2.60;;;24.80;45.10;25.80;101570.00;;;;5089549;28;20200;-42
2022/06/17 02:25:54;;;;;;;2.90;2.63;;;24.80;45.10;25.70;101577.00;;;;5088679;28;20863;-42
2022/06/17 02:28:20;;;;;;;3.00;2.70;;;24.70;45.10;25.70;101569.00;;;;5088475;28;20197;-43
2022/06/17 02:30:47;;;;;;;3.10;2.80;;;24.70;45.10;25.70;101564.00;;;;5089686;28;20193;-43
2022/06/17 02:33:12;;;;;;;3.10;2.77;;;24.70;45.10;25.70;101572.00;;;;5088686;28;20189;-42
2022/06/17 02:36:13;;;;;;;3.03;2.67;;;24.70;45.10;25.70;101572.00;;;;5090009;28;20167;-42
2022/06/17 02:38:39;;;;;;;3.00;2.67;;;24.70;45.10;25.60;101568.00;;;;5075545;28;20268;-42
2022/06/17 02:41:13;;;;;;;3.20;2.90;;;24.70;45.10;25.60;101545.00;;;;5088785;28;20324;-42
2022/06/17 02:43:42;;;;;;;2.90;2.60;;;24.60;45.10;25.60;101579.00;;;;5088677;28;20204;-41
2022/06/17 02:46:15;;;;;;;3.00;2.70;;;24.60;45.30;25.60;101569.00;;;;5088476;28;20169;-43
2022/06/17 02:48:56;;;;;;;3.10;2.80;;;24.70;45.40;25.50;101576.00;;;;5071507;28;20568;-43
2022/06/17 02:51:22;;;;;;;4.07;3.00;;;24.60;45.40;25.50;101572.00;;;;5090038;28;20165;-43
2022/06/17 02:53:48;;;;;;;3.00;2.70;;;24.60;45.50;25.50;101590.00;;;;5095947;28;20263;-43
2022/06/17 02:56:20;;;;;;;4.67;2.90;;;24.60;45.70;25.50;101588.00;;;;5092964;28;20204;-43
2022/06/17 02:59:15;;;;;;;3.00;2.70;;;24.60;45.70;25.50;101597.00;;;;5088339;28;20201;-43
2022/06/17 03:01:41;;;;;;;4.23;3.80;;;24.50;45.70;25.40;101594.00;;;;5088115;28;20160;-42
2022/06/17 03:04:19;;;;;;;7.70;7.00;;;24.50;45.70;25.40;101597.00;;;;5087772;28;20185;-42
2022/06/17 03:06:46;;;;;;;4.53;4.13;;;24.40;45.60;25.40;101606.00;;;;5088081;28;20180;-42
2022/06/17 03:09:20;;;;;;;6.23;5.73;;;24.40;45.60;25.40;101612.00;;;;5087902;28;20193;-42
2022/06/17 03:11:57;;;;;;;8.63;7.87;;;24.40;45.60;25.40;101618.00;;;;5088060;28;20173;-42
2022/06/17 03:14:25;;;;;;;5.07;4.67;;;24.40;45.70;25.30;101615.00;;;;5089173;28;20220;-42
2022/06/17 03:16:55;;;;;;;4.67;4.00;;;24.40;45.70;25.30;101619.00;;;;5088675;28;20545;-42
2022/06/17 03:19:22;;;;;;;4.27;3.70;;;24.40;45.80;25.30;101618.00;;;;5089738;28;20583;-42
2022/06/17 03:21:47;;;;;;;3.80;3.20;;;24.30;45.70;25.30;101617.00;;;;5110306;28;20165;-42
2022/06/17 03:24:33;;;;;;;3.53;3.23;;;24.40;45.90;25.20;101595.00;;;;5111556;28;20207;-41
2022/06/17 03:27:07;;;;;;;4.20;3.00;;;24.30;45.80;25.20;101608.00;;;;5088329;28;20239;-41
2022/06/17 03:29:33;;;;;;;3.40;3.10;;;24.30;45.80;25.20;101604.00;;;;5088142;28;20208;-43
2022/06/17 03:32:14;;;;;;;3.40;2.93;;;24.30;45.90;25.20;101614.00;;;;5088633;28;20268;-41
2022/06/17 03:34:53;;;;;;;3.10;2.80;;;24.30;45.90;25.20;101627.00;;;;5087706;28;20208;-42
2022/06/17 03:38:02;;;;;;;3.63;2.80;;;24.20;45.90;25.10;101623.00;;;;5088503;28;20181;-42
2022/06/17 03:40:35;;;;;;;2.90;2.67;;;24.20;45.90;24.90;101608.00;;;;5049819;28;20317;-41
2022/06/17 03:43:28;;;;;;;3.87;2.70;;;24.20;46.00;25.10;101637.00;;;;5015946;28;20229;-42
2022/06/17 03:46:03;;;;;;;2.80;2.60;;;24.10;45.80;25.00;101640.00;;;;5052159;28;20189;-42
2022/06/17 03:48:44;;;;;;;3.27;2.57;;;24.10;45.80;25.00;101636.00;;;;5088382;28;20280;-42
2022/06/17 03:51:19;;;;;;;3.23;2.80;;;24.10;45.90;25.00;101624.00;;;;5087079;28;20189;-43
2022/06/17 03:53:44;;;;;;;4.10;2.60;;;24.10;46.00;25.00;101608.00;;;;5088620;28;20208;-41
2022/06/17 03:56:16;;;;;;;4.90;2.87;;;24.10;46.10;24.90;101622.00;;;;5087037;28;20572;-43
2022/06/17 03:58:43;;;;;;;3.50;2.53;;;24.10;46.20;24.90;101617.00;;;;5086674;28;20610;-42
2022/06/17 04:01:43;;;;;;;3.40;2.70;;;24.10;46.20;24.90;101626.00;;;;5084983;28;20181;-41
2022/06/17 04:04:31;;;;;;;3.20;2.70;;;24.00;46.20;24.90;101623.00;;;;5092958;28;20651;-41
2022/06/17 04:06:57;;;;;;;4.10;2.80;;;24.00;46.20;24.90;101616.00;;;;5077498;28;20657;-41
2022/06/17 04:09:26;;;;;;;3.87;2.50;;;24.00;46.30;24.80;101624.00;;;;5075827;28;20193;-46
2022/06/17 04:11:57;;;;;;;2.93;2.63;;;23.90;46.10;24.80;101625.00;;;;5077469;28;20157;-41
2022/06/17 04:15:22;;;;;;;5.40;2.80;;;24.00;46.20;24.80;101628.00;;;;5062359;28;20189;-41
2022/06/17 04:17:48;;;;;;;3.40;2.93;;;23.90;46.10;24.80;101624.00;;;;5084056;28;20262;-42
2022/06/17 04:20:42;;;;;;;3.77;2.70;;;23.90;46.10;24.80;101624.00;;;;5071315;28;20756;-42
2022/06/17 04:23:20;;;;;;;2.90;2.70;;;23.90;46.30;24.80;101630.00;;;;5066017;28;20205;-41
2022/06/17 04:25:52;;;;;;;4.90;3.00;;;23.90;46.40;24.80;101627.00;;;;5067392;28;20162;-42
2022/06/17 04:28:22;;;;;;;4.27;2.90;;;23.90;46.70;24.70;101633.00;;;;5065849;28;20625;-42
2022/06/17 04:30:53;;;;;;;4.53;2.60;;;23.90;47.00;24.80;101649.00;;;;5066228;28;20158;-42
2022/06/17 04:33:48;;;;;;;3.10;2.80;;;23.90;47.00;24.70;101648.00;;;;5034096;28;20193;-42
2022/06/17 04:36:25;;;;;;;3.07;2.70;;;23.90;47.00;24.70;101650.00;;;;5067305;28;20178;-42
2022/06/17 04:38:55;;;;;;;3.87;2.60;;;23.90;47.00;24.70;101642.00;;;;5049369;28;20231;-43
2022/06/17 04:41:24;;;;;;;4.00;3.00;;;23.90;46.90;24.70;101654.00;;;;5050038;28;20178;-43
2022/06/17 04:43:53;;;;;;;3.23;2.50;;;23.80;46.70;24.70;101659.00;;;;5049518;28;20680;-42
2022/06/17 04:46:53;;;;;;;3.20;2.50;;;23.80;46.70;24.70;101635.00;;;;5057005;28;20176;-42
2022/06/17 04:49:22;;;;;;;3.27;2.90;;;23.80;46.70;24.70;101648.00;;;;5069035;28;20208;-41
2022/06/17 04:51:49;;;;;;;3.57;2.97;;;23.80;46.70;24.60;101648.00;;;;5080930;28;20173;-43
2022/06/17 04:54:15;;;;;;;3.83;2.90;;;23.80;46.70;24.60;101656.00;;;;5080211;28;20674;-43
2022/06/17 04:56:46;;;;;;;3.10;2.80;;;23.80;46.80;24.60;101647.00;;;;5075677;28;20177;-42
2022/06/17 04:59:40;;;;;;;2.90;2.60;;;23.80;46.90;24.60;101636.00;;;;5066556;28;20180;-42
2022/06/17 05:02:15;;;;;;;2.90;2.70;;;23.80;46.80;24.60;101636.00;;;;5067500;28;20276;-41
2022/06/17 05:04:40;;;;;;;3.00;2.80;;;23.80;46.80;24.60;101638.00;;;;5075743;28;20580;-43
2022/06/17 05:07:06;;;;;;;2.90;2.57;;;23.80;47.00;24.60;101642.00;;;;5048430;28;20191;-42
2022/06/17 05:09:42;;;;;;;3.00;2.80;;;23.80;47.00;24.50;101570.00;;;;5066172;28;20239;-43
2022/06/17 05:12:18;;;;;;;4.77;3.23;;;23.70;47.00;24.50;101638.00;;;;5049875;28;20164;-42
2022/06/17 05:14:51;;;;;;;3.43;2.70;;;23.70;47.30;24.50;101650.00;;;;5049451;28;20172;-42
2022/06/17 05:17:16;;;;;;;3.63;2.90;;;23.60;47.30;24.50;101643.00;;;;5065425;28;20173;-41
2022/06/17 05:19:42;;;;;;;2.90;2.70;;;23.60;47.20;24.50;101649.00;;;;5068354;28;20820;-42
2022/06/17 05:22:34;;;;;;;4.17;2.73;;;23.70;47.30;24.50;101654.00;;;;5069394;28;20536;-42
2022/06/17 05:25:03;;;;;;;2.90;2.63;;;23.60;47.20;24.50;101639.00;;;;5053033;28;20696;-41
2022/06/17 05:27:29;;;;;;;2.90;2.60;;;23.60;47.20;24.50;101661.00;;;;5066519;28;20188;-42
2022/06/17 05:29:55;;;;;;;3.07;2.50;;;23.60;47.10;24.40;101652.00;;;;5065333;28;20165;-42
2022/06/17 05:32:20;;;;;;;4.13;2.87;;;23.60;47.10;24.40;101650.00;;;;5066144;28;20170;-42
2022/06/17 05:34:47;;;;;;;2.83;2.60;;;23.60;47.20;24.40;101650.00;;;;5066334;28;20231;-41
2022/06/17 05:37:13;;;;;;;2.57;2.30;;;23.50;47.20;24.40;101647.00;;;;5066533;28;20166;-41
2022/06/17 05:39:39;;;;;;;3.70;2.70;;;23.50;47.20;24.40;101658.00;;;;5066797;28;20174;-42
2022/06/17 05:42:05;;;;;;;3.27;2.67;;;23.50;47.20;24.40;101648.00;;;;5066311;28;20178;-41
2022/06/17 05:44:32;;;;;;;2.93;2.60;;;23.50;47.20;24.30;101638.00;;;;5066353;28;20232;-42
2022/06/17 05:46:58;;;;;;;3.10;2.50;;;23.60;47.20;24.40;101564.00;;;;5066244;28;20273;-42
2022/06/17 05:49:24;;;;;;;4.20;2.60;;;23.50;47.10;24.30;101631.00;;;;5066298;28;20642;-43
2022/06/17 05:51:49;;;;;;;4.23;2.50;;;23.50;47.20;24.30;101634.00;;;;5065891;28;20188;-42
2022/06/17 05:54:15;;;;;;;3.47;2.50;;;23.50;47.20;24.30;101631.00;;;;5066149;28;20276;-42
2022/06/17 05:56:41;;;;;;;2.80;2.50;;;23.50;47.20;24.30;101630.00;;;;5066546;28;20169;-41
2022/06/17 05:59:07;;;;;;;3.23;2.50;;;23.50;47.30;24.30;101620.00;;;;5066150;28;20180;-43
2022/06/17 06:01:32;;;;;;;2.87;2.40;;;23.50;47.40;24.20;101626.00;;;;5065969;28;20185;-42
2022/06/17 06:03:58;;;;;;;3.00;2.57;;;23.40;47.10;24.20;101626.00;;;;5067541;28;20272;-42
2022/06/17 06:06:24;;;;;;;3.73;2.53;;;23.40;47.20;24.20;101616.00;;;;5069221;28;20174;-43
2022/06/17 06:08:50;;;;;;;2.80;2.53;;;23.40;47.20;24.20;101623.00;;;;5065828;28;20201;-42
2022/06/17 06:11:15;;;;;;;3.70;2.60;;;23.40;47.60;24.20;101624.00;;;;5065762;28;20267;-41
2022/06/17 06:13:41;;;;;;;3.70;2.70;;;23.40;47.60;24.20;101629.00;;;;5065679;28;20621;-42
2022/06/17 06:16:08;;;;;;;2.60;2.40;;;23.40;47.70;24.20;101635.00;;;;5065661;28;20208;-42
2022/06/17 06:18:36;;;;;;;2.83;2.63;;;23.40;47.70;24.20;101631.00;;;;5066803;28;20213;-43
2022/06/17 06:21:04;;;;;;;3.67;2.50;;;23.40;47.80;24.20;101629.00;;;;5077831;28;20237;-41
2022/06/17 06:23:35;;;;;;;3.03;2.37;;;23.40;47.90;24.20;101637.00;;;;5065771;28;20271;-42
2022/06/17 06:26:01;;;;;;;2.57;2.37;;;23.40;48.00;24.10;101629.00;;;;5067761;28;20198;-44
2022/06/17 06:28:27;;;;;;;2.77;2.50;;;23.40;47.90;24.10;101644.00;;;;5069040;28;20225;-41
2022/06/17 06:31:04;;;;;;;3.00;2.70;;;23.40;48.00;24.10;101637.00;;;;5069582;28;20494;-41
2022/06/17 06:33:29;;;;;;;2.60;2.40;;;23.40;48.00;24.10;101630.00;;;;5069352;28;20211;-41
2022/06/17 06:35:55;;;;;;;2.70;2.50;;;23.40;48.10;24.10;101619.00;;;;5001250;28;20211;-42
2022/06/17 06:38:21;;;;;;;2.70;2.50;;;23.40;48.00;24.10;101615.00;;;;5089054;28;20212;-44
2022/06/17 06:40:47;;;;;;;2.90;2.50;;;23.30;48.30;24.10;101613.00;;;;5088588;28;20188;-43
2022/06/17 06:43:18;;;;;;;5.03;2.93;;;23.30;48.10;24.10;101612.00;;;;5103955;28;20204;-42
2022/06/17 06:45:46;;;;;;;2.97;2.40;;;23.30;48.10;24.00;101616.00;;;;5113780;28;20165;-42
2022/06/17 06:48:12;;;;;;;3.17;2.60;;;23.30;48.20;24.00;101628.00;;;;5103595;28;20232;-41
2022/06/17 06:50:39;;;;;;;2.90;2.70;;;23.30;48.20;24.00;101621.00;;;;5088519;28;20168;-42
2022/06/17 06:53:05;;;;;;;2.70;2.50;;;23.30;48.20;24.00;101622.00;;;;5088539;28;20844;-42
2022/06/17 06:55:31;;;;;;;3.13;2.80;;;23.30;48.30;24.00;101631.00;;;;5088549;28;20204;-43
2022/06/17 06:58:03;;;;;;;3.07;2.30;;;23.30;48.30;24.00;101617.00;;;;5088519;28;20208;-42
2022/06/17 07:00:36;;;;;;;2.57;2.37;;;23.30;48.30;24.00;101617.00;;;;5088348;28;20643;-42
2022/06/17 07:03:02;;;;;;;3.37;2.70;;;23.30;48.40;24.00;101621.00;;;;5088397;28;20189;-42
2022/06/17 07:05:29;;;;;;;3.40;2.77;;;23.30;48.50;24.00;101608.00;;;;5088472;28;20173;-41
2022/06/17 07:07:54;;;;;;;2.70;2.50;;;23.30;48.50;24.00;101634.00;;;;5057136;28;20827;-43
2022/06/17 07:10:26;;;;;;;3.47;2.80;;;23.20;48.40;24.00;101563.00;;;;5109437;28;20200;-41
2022/06/17 07:12:53;;;;;;;2.80;2.43;;;23.30;48.50;24.00;101631.00;;;;5111720;28;20275;-42
2022/06/17 07:15:19;;;;;;;3.23;2.67;;;23.20;48.40;24.00;101621.00;;;;5116198;28;20232;-41
2022/06/17 07:18:03;;;;;;;3.40;2.80;;;23.20;48.40;23.90;101615.00;;;;5112794;28;20204;-41
2022/06/17 07:20:36;;;;;;;3.43;2.63;;;23.20;48.60;23.90;101606.00;;;;5107583;28;20171;-42
2022/06/17 07:23:33;;;;;;;3.17;2.87;;;23.20;48.70;23.90;101614.00;;;;5109837;28;20257;-42
2022/06/17 07:25:59;;;;;;;3.80;2.70;;;23.20;48.70;23.90;101630.00;;;;5106119;28;20191;-42
2022/06/17 07:28:25;;;;;;;3.30;2.50;;;23.20;48.80;23.90;101604.00;;;;5105315;28;20730;-42
2022/06/17 07:30:52;;;;;;;3.30;2.40;;;23.20;48.80;23.90;101613.00;;;;5088618;28;20177;-42
2022/06/17 07:33:19;;;;;;;2.50;2.30;;;23.20;48.70;23.90;101616.00;;;;5088329;28;20193;-44
2022/06/17 07:35:45;;;;;;;2.70;2.50;;;23.20;48.50;23.80;101618.00;;;;4983818;28;20638;-41
2022/06/17 07:41:02;;;;;;;3.33;2.43;;;23.20;48.40;23.90;101617.00;;;;5108675;28;20184;-42
2022/06/17 07:43:27;;;;;;;3.07;2.40;;;23.20;48.50;23.90;101618.00;;;;5108149;28;20648;-40
2022/06/17 07:45:53;;;;;;;2.53;2.33;;;23.10;48.50;23.90;101620.00;;;;5108171;28;20180;-43
2022/06/17 07:48:19;;;;;;;3.10;2.50;;;23.10;48.70;23.90;101624.00;;;;5108014;28;20852;-41
2022/06/17 07:50:45;;;;;;;2.70;2.50;;;23.10;48.60;23.90;101608.00;;;;5108462;28;20175;-42
2022/06/17 07:53:11;;;;;;;2.60;2.40;;;23.20;49.00;23.90;101619.00;;;;5108490;28;20188;-42
2022/06/17 07:55:37;;;;;;;5.13;2.40;;;23.20;48.70;23.90;101624.00;;;;5124222;27;20180;-41
2022/06/17 07:58:04;;;;;;;2.83;2.63;;;23.20;48.70;24.00;101627.00;;;;5107282;28;20173;-42
2022/06/17 08:00:35;;;;;;;3.90;2.50;;;23.20;48.80;24.00;101626.00;;;;5124234;27;20180;-42
2022/06/17 08:03:01;;;;;;;2.83;2.53;;;23.30;48.70;23.70;101623.00;;;;5108480;28;20211;-42
2022/06/17 08:05:27;;;;;;;4.67;2.60;;;23.30;48.60;24.00;101628.00;;;;5108147;28;20168;-41
2022/06/17 08:07:53;;;;;;;2.60;2.40;;;23.20;48.70;24.00;101636.00;;;;5107692;28;20210;-43
2022/06/17 08:10:22;;;;;;;3.37;2.60;;;23.20;48.70;24.00;101646.00;;;;5108507;28;20172;-42
2022/06/17 08:12:48;;;;;;;2.70;2.50;;;23.20;48.40;24.00;101638.00;;;;5103916;28;20195;-42
2022/06/17 08:15:15;;;;;;;3.27;2.57;;;23.20;48.40;24.00;101621.00;;;;5089736;28;20181;-41
2022/06/17 08:17:41;;;;;;;2.53;2.33;;;23.20;48.40;24.00;101624.00;;;;5097826;28;20173;-42
2022/06/17 08:20:21;;;;;;;4.00;2.50;;;23.30;48.50;24.00;101619.00;;;;5088115;28;20748;-42
2022/06/17 08:22:47;;;;;;;2.50;2.30;;;23.30;48.30;24.00;101621.00;;;;5101531;28;20279;-42
2022/06/17 08:25:13;;;;;;;3.47;2.60;;;23.30;48.40;24.00;101623.00;;;;5098232;28;20841;-42
2022/06/17 08:27:51;;;;;;;3.40;2.50;;;23.40;48.30;24.10;101614.00;;;;5099419;28;20172;-42
2022/06/17 08:30:20;;;;;;;4.83;2.70;;;23.40;48.10;24.10;101609.00;;;;5096002;28;20183;-42
2022/06/17 08:32:47;;;;;;;3.47;2.50;;;23.40;48.30;24.10;101603.00;;;;5087153;28;20193;-42
2022/06/17 08:35:20;;;;;;;3.40;2.30;;;23.40;48.10;24.10;101601.00;;;;5002298;28;20176;-42
2022/06/17 08:37:45;;;;;;;3.87;2.50;;;23.40;47.90;24.10;101606.00;;;;5109815;28;20157;-43
2022/06/17 08:40:39;;;;;;;4.40;2.70;;;23.40;48.10;24.10;101603.00;;;;5127422;27;20183;-41
2022/06/17 08:43:39;;;;;;;2.83;2.50;;;23.40;47.80;24.10;101600.00;;;;5118380;27;20253;-43
2022/06/17 08:46:57;;;;;;;2.57;2.37;;;23.40;47.70;24.10;101601.00;;;;5109644;28;20176;-42
2022/06/17 08:49:59;;;;;;;2.97;2.40;;;23.40;47.90;24.10;101588.00;;;;5100075;28;20226;-43
2022/06/17 08:52:38;;;;;;;4.67;2.50;;;23.40;47.70;24.10;101597.00;;;;5109252;28;20178;-41
2022/06/17 08:55:40;;;;;;;2.93;2.50;;;23.40;47.60;24.10;101605.00;;;;5125631;27;20697;-42
2022/06/17 08:58:31;;;;;;;4.47;2.60;;;23.40;47.50;24.10;101595.00;;;;5124698;27;20167;-44
2022/06/17 09:01:15;;;;;;;2.50;2.30;;;23.40;48.10;24.20;101588.00;;;;5088151;28;20184;-41
2022/06/17 09:04:25;;;;;;;3.03;2.43;;;23.50;48.00;24.30;101585.00;;;;5088714;28;20220;-43
2022/06/17 09:07:06;;;;;;;2.57;2.30;;;23.50;48.10;24.30;101585.00;;;;5087501;28;20161;-44
2022/06/17 09:10:00;;;;;;;3.50;2.43;;;23.60;48.50;24.30;101571.00;;;;5088828;28;20251;-44
2022/06/17 09:12:55;;;;;;;3.00;2.10;;;23.60;48.70;24.40;101555.00;;;;5087325;28;20264;-44
2022/06/17 09:15:22;;;;;;;2.50;2.30;;;23.60;48.90;24.40;101560.00;;;;5087699;28;20160;-42
2022/06/17 09:18:22;;;;;;;2.40;2.20;;;23.60;49.30;24.40;101580.00;;;;5087352;28;20535;-43
2022/06/17 09:20:49;;;;;;;4.23;2.30;;;23.60;50.00;24.50;101582.00;;;;5088844;28;20629;-44
2022/06/17 09:23:21;;;;;;;3.00;2.40;;;23.70;49.70;24.50;101573.00;;;;5070974;28;20273;-44
2022/06/17 09:25:48;;;;;;;4.47;2.33;;;23.60;49.60;24.50;101569.00;;;;5087435;28;20698;-44
2022/06/17 09:28:38;;;;;;;5.87;2.40;;;23.70;50.10;24.50;101563.00;;;;5088487;28;20213;-44
2022/06/17 09:31:18;;;;;;;2.73;2.30;;;23.70;50.30;24.50;101568.00;;;;5101162;28;20223;-43
2022/06/17 09:34:12;;;;;;;8.20;2.70;;;23.70;51.00;24.50;101569.00;;;;5103808;28;20189;-42
2022/06/17 09:36:56;;;;;;;6.90;2.70;;;23.80;51.10;24.60;101573.00;;;;5012394;28;20192;-43
2022/06/17 09:39:41;;;;;;;4.17;2.50;;;23.70;51.00;24.60;101569.00;;;;5109904;28;20196;-44
2022/06/17 09:42:16;;;;;;;3.17;2.17;;;23.80;51.10;24.60;101572.00;;;;5101968;28;20206;-44
2022/06/17 09:44:48;;;;;;;6.33;2.70;;;23.80;51.10;24.60;101557.00;;;;5105640;28;20354;-44
2022/06/17 09:47:24;;;;;;;2.80;2.20;;;23.80;51.10;24.70;101560.00;;;;5116627;28;20560;-43
2022/06/17 09:50:21;;;;;;;3.27;2.30;;;23.80;51.10;24.70;101543.00;;;;5087554;28;20204;-43
2022/06/17 09:52:55;;;;;;;2.70;2.10;;;23.80;51.40;24.70;101550.00;;;;5091997;28;20248;-43
2022/06/17 09:55:34;;;;;;;2.30;2.10;;;23.90;51.40;24.70;101536.00;;;;5104587;28;20634;-43
2022/06/17 09:58:06;;;;;;;2.40;2.20;;;23.80;51.50;24.70;101549.00;;;;5103667;28;20184;-43
2022/06/17 10:00:47;;;;;;;3.00;2.27;;;23.90;51.60;24.70;101548.00;;;;5104914;28;20534;-43
2022/06/17 10:03:24;;;;;;;3.30;2.20;;;23.90;51.70;24.80;101564.00;;;;5108262;28;20275;-41
2022/06/17 10:06:25;;;;;;;3.03;2.60;;;23.90;51.80;24.80;101553.00;;;;5092826;28;20234;-43
2022/06/17 10:09:13;;;;;;;2.40;2.20;;;23.90;51.90;24.80;101547.00;;;;5106876;28;20972;-42
2022/06/17 10:12:06;;;;;;;2.27;2.07;;;23.90;51.90;24.80;101534.00;;;;5092600;28;20169;-42
2022/06/17 10:14:56;;;;;;;2.33;2.13;;;23.90;51.80;24.80;101541.00;;;;5125481;28;20253;-43
2022/06/17 10:21:13;;;;;;;2.23;2.03;;;24.00;51.80;24.90;101528.00;;;;5102624;28;20242;-43
2022/06/17 10:23:52;;;;;;;3.53;2.10;;;24.00;51.90;24.90;101530.00;;;;5092637;28;20200;-44
2022/06/17 10:26:36;;;;;;;2.87;2.03;;;24.10;52.00;24.90;101529.00;;;;5108271;28;20154;-44
2022/06/17 10:29:31;;;;;;;2.33;2.13;;;24.10;52.00;25.00;101534.00;;;;5092060;28;20235;-45
2022/06/17 10:31:56;;;;;;;2.20;2.00;;;24.10;52.10;25.00;101532.00;;;;5091196;28;20746;-44
2022/06/17 10:34:32;;;;;;;2.10;2.00;;;24.10;52.00;25.00;101520.00;;;;5107948;28;20199;-43
2022/06/17 10:37:00;;;;;;;2.17;1.97;;;24.20;52.20;25.00;101527.00;;;;5106632;28;20169;-42
2022/06/17 10:39:27;;;;;;;2.20;2.00;;;24.20;52.20;25.00;101522.00;;;;5095429;28;20181;-42
2022/06/17 10:41:53;;;;;;;1.97;1.87;;;24.20;52.20;25.10;101531.00;;;;5092593;28;20169;-44
2022/06/17 10:44:22;;;;;;;2.83;2.00;;;24.20;52.20;25.10;101528.00;;;;5090898;28;20199;-43
2022/06/17 10:47:05;;;;;;;2.20;2.00;;;24.30;52.20;25.10;101526.00;;;;5091576;28;20173;-43
2022/06/17 10:49:58;;;;;;;2.10;2.00;;;24.30;52.10;25.20;101534.00;;;;5094117;28;20642;-42
2022/06/17 10:52:35;;;;;;;2.10;2.00;;;24.30;52.20;25.20;101530.00;;;;5094645;28;20201;-43
2022/06/17 10:55:03;;;;;;;2.10;1.90;;;24.30;52.20;25.20;101539.00;;;;5093754;28;20229;-43
2022/06/17 10:57:31;;;;;;;2.27;2.07;;;24.40;52.30;25.20;101539.00;;;;5090673;28;20180;-42
2022/06/17 10:59:57;;;;;;;2.10;1.90;;;24.40;52.30;25.20;101533.00;;;;5091677;28;20176;-42
2022/06/17 11:02:25;;;;;;;2.10;1.90;;;24.40;52.40;25.30;101531.00;;;;5091243;28;20165;-43
2022/06/17 11:05:05;;;;;;;2.10;1.90;;;24.40;52.30;25.30;101527.00;;;;5090309;28;20260;-42
2022/06/17 11:07:49;;;;;;;3.40;2.30;;;24.50;52.40;25.30;101528.00;;;;5001105;28;20212;-43
2022/06/17 11:10:14;;;;;;;2.33;2.00;;;24.50;52.30;25.30;101523.00;;;;5071800;28;20161;-42
2022/06/17 11:12:56;;;;;;;2.27;2.07;;;24.50;52.30;25.40;101523.00;;;;5090701;28;20243;-44
2022/06/17 11:15:29;;;;;;;2.10;1.90;;;24.50;52.30;25.40;101513.00;;;;5091412;28;20179;-44
2022/06/17 11:18:06;;;;;;;1.90;1.80;;;24.60;52.30;25.40;101514.00;;;;5109566;28;20170;-44
2022/06/17 11:20:34;;;;;;;2.17;1.97;;;24.60;52.30;25.50;101437.00;;;;5105656;28;20193;-43
2022/06/17 11:23:21;;;;;;;3.40;1.80;;;24.60;52.50;25.50;101512.00;;;;5091096;28;20215;-44